Time;durP1;ratioP1;P1;durP2;ratioP2;P2;SDS_P1;SDS_P2;PMS_P1;PMS_P2;Temp;Humidity;BMP_temperature;BMP_pressure;BME280_temperature;BME280_humidity;BME280_pressure;Samples;Min_cycle;Max_cycle;Signal;HPM_P1;HPM_P2
2022/01/08 00:00:12;;;;;;;13.70;13.00;;;;;;;-3.67;100.00;101560.28;4969535;28;20369;-63
2022/01/08 00:02:38;;;;;;;14.63;13.82;;;;;;;-3.67;100.00;101562.88;4970439;28;20456;-63
2022/01/08 00:05:04;;;;;;;14.00;13.30;;;;;;;-3.64;100.00;101560.16;4969501;28;20039;-62
2022/01/08 00:07:30;;;;;;;13.93;13.23;;;;;;;-3.54;100.00;101555.44;4970416;28;20029;-66
2022/01/08 00:09:55;;;;;;;13.82;13.13;;;;;;;-3.66;100.00;101554.19;4969308;28;20031;-64
2022/01/08 00:12:21;;;;;;;13.68;12.98;;;;;;;-3.49;100.00;101565.66;4970177;28;20031;-63
2022/01/08 00:14:47;;;;;;;14.52;13.75;;;;;;;-3.60;100.00;101560.84;4966317;28;20035;-63
2022/01/08 00:17:12;;;;;;;14.10;13.40;;;;;;;-3.48;100.00;101552.63;4967331;28;20031;-61
2022/01/08 00:19:38;;;;;;;15.07;14.27;;;;;;;-3.40;100.00;101550.56;4966818;28;20035;-63
2022/01/08 00:22:03;;;;;;;13.30;12.70;;;;;;;-3.42;100.00;101549.78;4961082;28;20031;-65
2022/01/08 00:24:29;;;;;;;13.85;13.15;;;;;;;-3.36;100.00;101546.13;4968706;28;20481;-65
2022/01/08 00:26:55;;;;;;;14.73;13.93;;;;;;;-3.34;100.00;101552.06;4972562;28;20032;-65
2022/01/08 00:29:20;;;;;;;14.35;13.55;;;;;;;-3.16;100.00;101553.09;4971744;28;20804;-62
2022/01/08 00:31:46;;;;;;;13.80;13.10;;;;;;;-3.16;100.00;101540.97;4967851;28;20027;-62
2022/01/08 00:34:11;;;;;;;13.45;12.75;;;;;;;-3.21;100.00;101544.66;4966000;28;20030;-64
2022/01/08 00:36:37;;;;;;;13.55;12.85;;;;;;;-3.20;100.00;101544.59;4973209;28;20082;-64
2022/01/08 00:39:03;;;;;;;13.73;13.02;;;;;;;-3.13;100.00;101535.66;4972866;28;20278;-63
2022/01/08 00:41:28;;;;;;;15.57;14.77;;;;;;;-3.15;100.00;101536.63;4971887;28;20027;-63
2022/01/08 00:43:54;;;;;;;14.07;13.38;;;;;;;-3.02;100.00;101526.56;4972356;28;20453;-65
2022/01/08 00:46:20;;;;;;;13.55;12.85;;;;;;;-2.99;100.00;101529.06;4964293;28;20039;-63
2022/01/08 00:48:45;;;;;;;13.40;12.70;;;;;;;-2.95;100.00;101526.25;4965119;28;20084;-66
2022/01/08 00:51:11;;;;;;;13.77;13.07;;;;;;;-2.89;100.00;101532.94;4968979;28;20027;-64
2022/01/08 00:53:37;;;;;;;13.77;13.07;;;;;;;-2.87;100.00;101528.53;4965627;28;20030;-65
2022/01/08 00:56:03;;;;;;;13.55;12.85;;;;;;;-2.82;100.00;101524.00;4971278;28;20050;-65
2022/01/08 00:58:29;;;;;;;13.60;12.90;;;;;;;-2.80;100.00;101524.75;4973572;28;20035;-65
2022/01/08 01:00:54;;;;;;;13.20;12.60;;;;;;;-2.74;100.00;101515.88;4972065;28;20027;-66
2022/01/08 01:03:20;;;;;;;13.35;12.68;;;;;;;-2.68;100.00;101510.44;4973045;28;20039;-63
2022/01/08 01:05:46;;;;;;;13.85;13.15;;;;;;;-2.67;100.00;101517.31;4973143;28;20476;-66
2022/01/08 01:08:11;;;;;;;13.98;13.27;;;;;;;-2.65;100.00;101520.66;4972304;28;20047;-65
2022/01/08 01:10:37;;;;;;;13.30;12.70;;;;;;;-2.66;100.00;101506.00;4972416;28;20396;-62
2022/01/08 01:13:03;;;;;;;13.68;12.98;;;;;;;-2.69;100.00;101501.78;4968578;28;20512;-66
2022/01/08 01:15:29;;;;;;;14.15;13.38;;;;;;;-2.61;100.00;101506.66;4970321;28;20031;-62
2022/01/08 01:17:54;;;;;;;13.15;12.55;;;;;;;-2.67;100.00;101492.16;4972127;28;20023;-64
2022/01/08 01:20:21;;;;;;;14.07;13.27;;;;;;;-2.67;100.00;101499.13;4972752;28;20027;-64
2022/01/08 01:23:34;;;;;;;14.82;13.95;;;;;;;-2.63;100.00;101498.94;4972593;28;20030;-64
2022/01/08 01:25:48;;;;;;;14.20;13.50;;;;;;;-2.58;100.00;101491.75;4972976;28;20416;-65
2022/01/08 01:42:10;;;;;;;13.77;13.07;;;;;;;-2.41;100.00;101459.03;4957188;28;20034;-63
2022/01/08 01:47:30;;;;;;;13.82;13.13;;;;;;;-2.40;100.00;101448.56;4972653;28;20065;-63
2022/01/08 01:49:55;;;;;;;13.80;13.07;;;;;;;-2.26;100.00;101455.72;4972547;28;20117;-62
2022/01/08 01:52:21;;;;;;;13.57;12.88;;;;;;;-2.22;100.00;101452.06;4973976;28;20176;-67
2022/01/08 01:54:47;;;;;;;13.45;12.75;;;;;;;-2.28;100.00;101449.75;4970948;28;20051;-64
2022/01/08 01:57:13;;;;;;;14.55;13.75;;;;;;;-2.24;100.00;101448.69;4967157;28;20494;-65
2022/01/08 01:59:40;;;;;;;14.15;13.35;;;;;;;-2.27;100.00;101439.31;4972454;28;20027;-64
2022/01/08 02:02:06;;;;;;;13.20;12.50;;;;;;;-2.10;100.00;101441.13;4971621;28;20026;-66
2022/01/08 02:04:32;;;;;;;13.40;12.70;;;;;;;-2.10;100.00;101446.31;4971930;28;20038;-62
2022/01/08 02:06:58;;;;;;;14.05;13.25;;;;;;;-2.15;100.00;101429.22;4972499;28;20035;-66
2022/01/08 02:09:23;;;;;;;13.50;12.80;;;;;;;-2.16;100.00;101427.56;4972477;28;20039;-65
2022/01/08 02:12:04;;;;;;;13.25;12.55;;;;;;;-2.06;100.00;101434.00;4966190;28;20484;-62
2022/01/08 02:14:32;;;;;;;14.10;13.30;;;;;;;-2.14;100.00;101421.34;4970948;28;20033;-63
2022/01/08 02:16:58;;;;;;;13.23;12.52;;;;;;;-2.16;100.00;101428.41;4968214;28;20045;-65
2022/01/08 02:19:25;;;;;;;13.25;12.55;;;;;;;-2.14;100.00;101423.97;4971493;28;20031;-61
2022/01/08 02:21:57;;;;;;;13.30;12.60;;;;;;;-2.10;100.00;101417.72;4971307;28;20387;-62
2022/01/08 02:24:23;;;;;;;13.50;12.80;;;;;;;-2.11;100.00;101412.59;4967640;28;20027;-66
2022/01/08 02:26:49;;;;;;;12.95;12.30;;;;;;;-2.10;100.00;101414.28;4971125;28;20030;-63
2022/01/08 02:29:17;;;;;;;13.25;12.55;;;;;;;-2.01;100.00;101416.44;4971661;28;20022;-64
2022/01/08 02:31:57;;;;;;;13.27;12.57;;;;;;;-1.78;99.76;101416.19;4971235;28;20501;-64
2022/01/08 02:34:23;;;;;;;13.15;12.45;;;;;;;-1.73;98.14;101418.56;4971573;28;20128;-64
2022/01/08 02:36:49;;;;;;;13.60;12.85;;;;;;;-1.66;97.03;101412.16;4970765;28;20121;-61
2022/01/08 02:39:14;;;;;;;13.02;12.32;;;;;;;-1.52;94.97;101408.88;4960188;28;20110;-67
2022/01/08 02:41:40;;;;;;;13.95;13.15;;;;;;;-1.52;95.61;101407.13;4969572;28;20045;-62
2022/01/08 02:44:06;;;;;;;12.50;11.90;;;;;;;-1.48;95.00;101410.41;4970840;28;20026;-61
2022/01/08 02:46:32;;;;;;;13.23;12.50;;;;;;;-1.38;93.61;101408.19;4969444;28;20515;-63
2022/01/08 02:48:57;;;;;;;12.10;11.50;;;;;;;-1.30;92.23;101411.25;4971467;28;20034;-64
2022/01/08 02:51:24;;;;;;;13.13;12.43;;;;;;;-1.23;91.49;101403.06;4971737;28;20473;-65
2022/01/08 02:53:50;;;;;;;12.00;11.40;;;;;;;-1.16;89.87;101398.38;4971773;28;20027;-63
2022/01/08 02:56:16;;;;;;;12.02;11.43;;;;;;;-1.16;89.62;101388.81;4970070;28;20519;-63
2022/01/08 02:58:41;;;;;;;12.63;11.95;;;;;;;-1.15;89.80;101395.69;4970178;28;20053;-61
2022/01/08 03:01:06;;;;;;;12.40;11.73;;;;;;;-1.13;89.59;101400.81;4969766;28;20038;-63
2022/01/08 03:03:32;;;;;;;12.25;11.65;;;;;;;-1.12;89.14;101389.47;4971312;28;20041;-64
2022/01/08 03:05:57;;;;;;;13.10;12.35;;;;;;;-0.98;87.83;101389.63;4970329;28;20047;-63
2022/01/08 03:08:23;;;;;;;12.55;11.95;;;;;;;-0.99;89.06;101392.31;4967946;28;20030;-65
2022/01/08 03:10:48;;;;;;;12.52;11.82;;;;;;;-1.10;88.38;101400.69;4970693;28;20026;-66
2022/01/08 03:13:14;;;;;;;12.55;11.85;;;;;;;-1.04;89.30;101409.91;4963924;28;20054;-64
2022/01/08 03:15:39;;;;;;;12.10;11.50;;;;;;;-1.07;89.64;101403.13;4969538;28;20065;-65
2022/01/08 03:18:06;;;;;;;12.20;11.60;;;;;;;-1.04;88.97;101402.94;4970064;28;20081;-61
2022/01/08 03:20:35;;;;;;;12.15;11.55;;;;;;;-1.05;89.08;101401.25;4970749;28;20492;-60
2022/01/08 03:23:03;;;;;;;12.20;11.60;;;;;;;-0.99;87.92;101394.91;4971081;28;20113;-64
2022/01/08 03:25:31;;;;;;;12.75;12.05;;;;;;;-1.08;89.66;101395.38;4970726;28;20393;-63
2022/01/08 03:27:56;;;;;;;12.50;11.88;;;;;;;-1.04;88.59;101407.31;4970046;28;20029;-65
2022/01/08 03:30:23;;;;;;;12.30;11.70;;;;;;;-1.11;89.34;101402.41;4970294;28;21812;-64
2022/01/08 03:32:48;;;;;;;13.00;12.30;;;;;;;-1.11;90.69;101404.19;4970010;28;20041;-62
2022/01/08 03:35:14;;;;;;;13.30;12.50;;;;;;;-1.19;90.39;101406.34;4965938;28;20043;-64
2022/01/08 03:37:39;;;;;;;12.32;11.73;;;;;;;-1.24;92.91;101401.38;4969485;28;20046;-65
2022/01/08 03:40:06;;;;;;;12.40;11.80;;;;;;;-1.29;93.42;101397.31;4970773;28;20493;-62
2022/01/08 03:42:32;;;;;;;12.27;11.57;;;;;;;-1.32;93.86;101402.66;4969055;28;20026;-61
2022/01/08 03:44:58;;;;;;;12.18;11.57;;;;;;;-1.38;94.06;101392.59;4971293;28;20038;-66
2022/01/08 03:47:41;;;;;;;12.10;11.50;;;;;;;-1.46;95.23;101396.41;4970681;28;20511;-62
2022/01/08 03:50:07;;;;;;;12.45;11.85;;;;;;;-1.48;95.53;101387.81;4970436;28;20445;-62
2022/01/08 03:52:34;;;;;;;12.30;11.70;;;;;;;-1.52;95.20;101391.50;4970866;28;20039;-63
2022/01/08 03:54:59;;;;;;;13.52;12.82;;;;;;;-1.53;94.72;101387.22;4968668;28;20109;-66
2022/01/08 03:57:25;;;;;;;13.13;12.43;;;;;;;-1.52;95.45;101385.47;4970087;28;20026;-67
2022/01/08 03:59:50;;;;;;;12.23;11.63;;;;;;;-1.59;95.44;101379.72;4971673;28;20027;-67
2022/01/08 04:02:16;;;;;;;12.80;12.10;;;;;;;-1.66;95.21;101383.53;4974383;28;20031;-64
2022/01/08 04:04:41;;;;;;;12.95;12.25;;;;;;;-1.70;95.67;101382.84;4970851;28;20035;-65
2022/01/08 04:07:07;;;;;;;13.45;12.70;;;;;;;-1.83;96.14;101389.56;4973061;28;20031;-63
2022/01/08 04:09:33;;;;;;;13.18;12.48;;;;;;;-1.84;96.30;101381.81;4974651;28;20403;-62
2022/01/08 04:11:59;;;;;;;13.60;12.80;;;;;;;-1.84;95.48;101385.25;4973695;28;20078;-61
2022/01/08 04:14:31;;;;;;;13.80;13.00;;;;;;;-1.83;95.73;101378.31;4973765;28;20256;-63
2022/01/08 04:16:56;;;;;;;14.27;13.48;;;;;;;-1.96;96.47;101376.31;4962835;28;20417;-61
2022/01/08 04:19:22;;;;;;;13.48;12.77;;;;;;;-1.95;96.68;101372.78;4973631;28;20085;-64
2022/01/08 04:22:02;;;;;;;13.18;12.48;;;;;;;-1.98;95.88;101377.31;4973579;28;20130;-62
2022/01/08 04:24:27;;;;;;;13.32;12.63;;;;;;;-2.00;96.41;101374.75;4974588;28;20032;-61
2022/01/08 04:26:53;;;;;;;13.60;12.88;;;;;;;-2.03;97.30;101374.06;4972638;28;20129;-66
2022/01/08 04:29:18;;;;;;;12.80;12.20;;;;;;;-2.07;97.73;101378.56;4974779;28;20039;-64
2022/01/08 04:31:44;;;;;;;13.20;12.50;;;;;;;-2.06;98.22;101372.44;4961580;28;20059;-62
2022/01/08 04:34:09;;;;;;;13.75;13.00;;;;;;;-2.06;98.60;101367.25;4968267;28;20035;-62
2022/01/08 04:36:35;;;;;;;12.73;12.13;;;;;;;-2.06;98.16;101364.66;4974331;28;20054;-64
2022/01/08 04:39:00;;;;;;;13.07;12.40;;;;;;;-2.07;98.19;101362.97;4971605;28;20441;-65
2022/01/08 04:41:26;;;;;;;13.48;12.77;;;;;;;-2.07;97.89;101364.72;4972714;28;20039;-65
2022/01/08 04:43:51;;;;;;;14.65;13.80;;;;;;;-2.18;98.88;101367.84;4968324;28;20029;-64
2022/01/08 04:46:17;;;;;;;13.52;12.82;;;;;;;-2.18;99.45;101365.25;4969706;28;20575;-62
2022/01/08 04:48:42;;;;;;;13.20;12.60;;;;;;;-2.30;100.00;101361.47;4968274;28;20524;-66
2022/01/08 04:51:08;;;;;;;14.57;13.77;;;;;;;-2.33;100.00;101361.63;4966026;28;20110;-65
2022/01/08 04:53:34;;;;;;;13.35;12.65;;;;;;;-2.40;100.00;101362.81;4968289;28;20378;-65
2022/01/08 04:55:59;;;;;;;13.57;12.88;;;;;;;-2.37;100.00;101364.41;4971171;28;20078;-65
2022/01/08 04:58:25;;;;;;;13.43;12.73;;;;;;;-2.41;100.00;101357.69;4970118;28;20027;-65
2022/01/08 05:00:50;;;;;;;13.43;12.73;;;;;;;-2.47;100.00;101357.97;4966522;28;20019;-60
2022/01/08 05:03:16;;;;;;;14.70;13.90;;;;;;;-2.55;100.00;101356.56;4970656;28;20119;-61
2022/01/08 05:05:41;;;;;;;13.80;13.10;;;;;;;-2.51;100.00;101352.06;4971917;28;20031;-62
2022/01/08 05:08:07;;;;;;;14.65;13.85;;;;;;;-2.57;100.00;101344.53;4971611;28;20501;-66
2022/01/08 05:10:34;;;;;;;13.32;12.63;;;;;;;-2.65;100.00;101341.47;4969993;28;20027;-63
2022/01/08 05:13:05;;;;;;;14.43;13.65;;;;;;;-2.62;100.00;101339.59;4969222;28;20134;-63
2022/01/08 05:15:31;;;;;;;13.07;12.43;;;;;;;-2.62;100.00;101334.38;4969164;28;20488;-65
2022/01/08 05:17:57;;;;;;;13.32;12.63;;;;;;;-2.61;100.00;101353.41;4962292;28;20073;-66
2022/01/08 05:20:24;;;;;;;13.82;13.13;;;;;;;-2.56;100.00;101343.66;4969126;28;20458;-63
2022/01/08 05:22:59;;;;;;;13.77;13.07;;;;;;;-2.53;100.00;101343.50;4970040;28;20617;-67
2022/01/08 05:25:26;;;;;;;14.07;13.38;;;;;;;-2.51;100.00;101347.72;4971595;28;20035;-64
2022/01/08 05:27:52;;;;;;;15.02;14.13;;;;;;;-2.48;100.00;101351.09;4970216;28;20145;-65
2022/01/08 05:30:20;;;;;;;13.95;13.25;;;;;;;-2.49;100.00;101344.22;4972131;28;20117;-60
2022/01/08 05:32:46;;;;;;;13.30;12.60;;;;;;;-2.46;100.00;101355.31;4972938;28;20034;-64
2022/01/08 05:35:11;;;;;;;13.32;12.63;;;;;;;-2.42;100.00;101341.28;4973036;28;20037;-64
2022/01/08 05:37:37;;;;;;;13.27;12.57;;;;;;;-2.43;100.00;101342.16;4973756;28;20113;-65
2022/01/08 05:40:03;;;;;;;13.25;12.55;;;;;;;-2.45;100.00;101341.41;4972011;28;20027;-62
2022/01/08 05:42:28;;;;;;;13.10;12.45;;;;;;;-2.45;100.00;101349.19;4967498;28;20049;-64
2022/01/08 05:44:54;;;;;;;13.27;12.57;;;;;;;-2.42;100.00;101330.88;4971435;28;20169;-64
2022/01/08 05:47:23;;;;;;;13.48;12.77;;;;;;;-2.37;100.00;101341.03;4971032;28;20129;-64
2022/01/08 05:49:49;;;;;;;14.23;13.45;;;;;;;-2.35;100.00;101324.47;4970514;28;20089;-66
2022/01/08 05:52:14;;;;;;;14.23;13.43;;;;;;;-2.34;100.00;101330.50;4972214;28;20052;-62
2022/01/08 05:54:40;;;;;;;12.90;12.20;;;;;;;-2.30;100.00;101345.88;4970073;28;20046;-66
2022/01/08 05:57:06;;;;;;;13.52;12.82;;;;;;;-2.27;100.00;101344.91;4969427;28;20400;-62
2022/01/08 05:59:32;;;;;;;13.35;12.65;;;;;;;-2.26;100.00;101342.22;4973810;28;20472;-64
2022/01/08 06:01:58;;;;;;;14.60;13.70;;;;;;;-2.15;100.00;101346.06;4971437;28;20081;-65
2022/01/08 06:04:24;;;;;;;14.13;13.32;;;;;;;-2.17;100.00;101340.09;4970908;28;20404;-66
2022/01/08 06:06:50;;;;;;;14.38;13.57;;;;;;;-2.16;100.00;101345.22;4967672;28;20153;-65
2022/01/08 06:09:15;;;;;;;14.35;13.52;;;;;;;-2.22;100.00;101342.91;4969707;28;20027;-62
2022/01/08 06:11:41;;;;;;;13.43;12.73;;;;;;;-2.15;100.00;101336.50;4971083;28;20027;-64
2022/01/08 06:14:06;;;;;;;13.07;12.38;;;;;;;-2.12;100.00;101333.78;4966964;28;20085;-63
2022/01/08 06:16:35;;;;;;;13.43;12.63;;;;;;;-2.16;100.00;101336.59;4970813;28;20585;-67
2022/01/08 06:19:06;;;;;;;13.02;12.32;;;;;;;-2.09;100.00;101327.56;4972143;28;20037;-66
2022/01/08 06:21:32;;;;;;;14.77;13.82;;;;;;;-2.13;100.00;101321.69;4970302;28;20057;-65
2022/01/08 06:23:58;;;;;;;13.07;12.38;;;;;;;-2.12;100.00;101328.56;4969309;28;20026;-66
2022/01/08 06:26:23;;;;;;;13.77;12.98;;;;;;;-2.07;100.00;101325.72;4970502;28;20081;-66
2022/01/08 06:28:51;;;;;;;15.73;14.63;;;;;;;-2.03;100.00;101325.53;4971682;28;20455;-61
2022/01/08 06:31:18;;;;;;;12.77;12.10;;;;;;;-1.95;100.00;101330.34;4972305;28;20062;-63
2022/01/08 06:33:43;;;;;;;13.30;12.60;;;;;;;-1.99;100.00;101332.25;4971481;28;20031;-60
2022/01/08 06:36:09;;;;;;;13.20;12.50;;;;;;;-1.81;100.00;101321.88;4972015;28;20035;-59
2022/01/08 06:38:34;;;;;;;13.25;12.55;;;;;;;-1.64;100.00;101319.25;4971405;28;20030;-64
2022/01/08 06:41:00;;;;;;;13.40;12.65;;;;;;;-1.64;100.00;101324.47;4970055;28;20031;-65
2022/01/08 06:43:25;;;;;;;12.30;11.60;;;;;;;-1.48;99.91;101314.97;4970944;28;20033;-62
2022/01/08 06:45:50;;;;;;;13.38;12.57;;;;;;;-1.57;100.00;101319.78;4972315;28;20117;-67
2022/01/08 06:48:16;;;;;;;13.07;12.38;;;;;;;-1.40;100.00;101312.84;4969747;28;20019;-64
2022/01/08 06:50:41;;;;;;;12.95;12.25;;;;;;;-1.19;98.02;101315.22;4969955;28;20034;-65
2022/01/08 06:53:07;;;;;;;13.02;12.32;;;;;;;-0.96;96.92;101319.22;4962826;28;20037;-65
2022/01/08 06:55:32;;;;;;;12.45;11.75;;;;;;;-0.49;95.08;101314.06;4969779;28;20475;-62
2022/01/08 06:57:59;;;;;;;13.68;12.88;;;;;;;0.46;89.78;101316.47;4971569;28;20039;-70
2022/01/08 07:00:25;;;;;;;11.73;11.13;;;;;;;-0.17;92.09;101320.06;4970859;28;20029;-65
2022/01/08 07:02:50;;;;;;;11.30;10.70;;;;;;;-0.42;93.61;101314.56;4969802;28;20023;-68
2022/01/08 07:05:16;;;;;;;13.10;12.30;;;;;;;0.55;89.00;101319.38;4968249;28;20482;-66
2022/01/08 07:07:41;;;;;;;12.70;11.90;;;;;;;1.12;84.78;101315.09;4971190;28;20018;-63
2022/01/08 07:10:07;;;;;;;11.68;11.05;;;;;;;2.29;77.43;101311.94;4969566;28;20035;-64
2022/01/08 07:12:33;;;;;;;12.02;11.38;;;;;;;2.43;77.40;101314.47;4952464;28;21232;-64
2022/01/08 07:14:58;;;;;;;11.02;10.43;;;;;;;2.79;76.91;101321.59;4969700;28;20110;-67
2022/01/08 07:17:24;;;;;;;10.93;10.32;;;;;;;3.14;72.54;101323.56;4959431;28;20042;-66
2022/01/08 07:19:49;;;;;;;10.65;10.15;;;;;;;4.75;68.43;101308.19;4967662;28;20020;-67
2022/01/08 07:22:15;;;;;;;11.15;10.55;;;;;;;4.29;68.87;101306.44;4970051;28;20465;-64
2022/01/08 07:24:41;;;;;;;11.20;10.55;;;;;;;1.75;75.36;101312.81;4971234;28;20035;-63
2022/01/08 07:27:06;;;;;;;10.60;10.10;;;;;;;1.96;77.69;101307.13;4969785;28;20034;-60
2022/01/08 07:29:31;;;;;;;11.20;10.60;;;;;;;1.60;78.57;101312.00;4971196;28;20074;-64
2022/01/08 07:31:57;;;;;;;12.55;11.85;;;;;;;2.68;72.37;101326.75;4962912;28;20031;-65
2022/01/08 07:34:23;;;;;;;11.85;11.15;;;;;;;4.38;66.19;101313.59;4969061;28;20027;-65
2022/01/08 07:36:48;;;;;;;10.93;10.32;;;;;;;5.64;61.73;101317.81;4974480;28;20034;-67
2022/01/08 07:39:14;;;;;;;10.48;9.93;;;;;;;7.00;57.32;101321.47;4973862;28;20129;-68
2022/01/08 07:41:39;;;;;;;10.90;10.23;;;;;;;5.82;59.28;101313.69;4973955;28;20035;-64
2022/01/08 07:44:05;;;;;;;11.60;10.95;;;;;;;5.36;63.24;101302.53;4974625;28;20031;-63
2022/01/08 07:46:30;;;;;;;10.35;9.85;;;;;;;7.44;55.80;101314.97;4971640;28;20038;-63
2022/01/08 07:48:56;;;;;;;10.30;9.80;;;;;;;6.25;57.10;101304.13;4962635;28;20063;-64
2022/01/08 07:51:21;;;;;;;10.10;9.60;;;;;;;5.61;59.17;101304.91;4970634;28;20050;-65
2022/01/08 07:53:47;;;;;;;10.93;10.32;;;;;;;5.04;62.36;101303.31;4975030;28;20431;-66
2022/01/08 07:56:12;;;;;;;11.07;10.48;;;;;;;4.12;67.18;101286.69;4973255;28;20055;-64
2022/01/08 07:58:38;;;;;;;11.20;10.60;;;;;;;5.97;58.87;101289.75;4972360;28;20035;-64
2022/01/08 08:01:03;;;;;;;10.50;10.00;;;;;;;5.98;59.38;101289.63;4974335;28;20042;-66
2022/01/08 08:03:29;;;;;;;10.30;9.80;;;;;;;7.97;51.63;101293.50;4975274;28;20058;-63
2022/01/08 08:05:54;;;;;;;11.80;11.10;;;;;;;6.63;55.59;101292.97;4973747;28;20073;-65
2022/01/08 08:08:21;;;;;;;10.70;10.10;;;;;;;6.50;57.09;101290.53;4974345;28;20034;-63
2022/01/08 08:10:49;;;;;;;10.82;10.23;;;;;;;6.31;57.76;101285.97;4973257;28;20085;-63
2022/01/08 08:13:17;;;;;;;11.63;10.93;;;;;;;6.02;58.32;101285.78;4971869;28;20077;-63
2022/01/08 08:15:42;;;;;;;11.02;10.43;;;;;;;5.88;58.36;101290.47;4964700;28;20563;-66
2022/01/08 08:18:08;;;;;;;11.02;10.43;;;;;;;4.28;64.11;101269.78;4969531;28;20034;-67
2022/01/08 08:20:33;;;;;;;10.52;10.02;;;;;;;4.67;64.18;101292.16;4973766;28;20042;-68
2022/01/08 08:22:59;;;;;;;10.25;9.75;;;;;;;3.42;69.84;101289.19;4964082;28;20090;-65
2022/01/08 08:25:25;;;;;;;11.25;10.65;;;;;;;3.17;71.09;101286.66;4975550;28;20042;-64
2022/01/08 08:27:50;;;;;;;12.52;11.82;;;;;;;2.82;72.74;101289.13;4971882;28;20493;-61
2022/01/08 08:30:16;;;;;;;11.60;11.00;;;;;;;2.53;74.23;101280.63;4965241;28;20031;-63
2022/01/08 08:32:41;;;;;;;12.40;11.70;;;;;;;2.85;78.83;101281.03;4966664;28;20034;-62
2022/01/08 08:35:08;;;;;;;12.23;11.52;;;;;;;2.32;75.89;101275.91;4971511;28;20093;-69
2022/01/08 08:37:35;;;;;;;11.95;11.35;;;;;;;2.33;76.09;101274.13;4975814;28;20030;-63
2022/01/08 08:40:01;;;;;;;11.70;11.10;;;;;;;3.08;74.86;101263.69;4976563;28;20462;-64
2022/01/08 08:42:27;;;;;;;11.57;10.98;;;;;;;4.18;69.20;101266.16;4971583;28;20448;-66
2022/01/08 08:44:53;;;;;;;11.32;10.73;;;;;;;5.88;62.02;101262.34;4973991;28;20026;-65
2022/01/08 08:47:18;;;;;;;11.02;10.43;;;;;;;3.92;68.81;101255.00;4963076;28;20030;-66
2022/01/08 08:49:44;;;;;;;10.50;10.00;;;;;;;3.33;71.94;101256.63;4971589;28;20495;-67
2022/01/08 08:52:09;;;;;;;11.45;10.82;;;;;;;3.43;72.57;101251.53;4985126;28;20485;-68
2022/01/08 08:54:35;;;;;;;11.48;10.80;;;;;;;3.13;73.45;101244.09;4982125;28;20031;-66
2022/01/08 08:57:00;;;;;;;11.38;10.77;;;;;;;3.41;74.10;101231.63;4973407;28;20047;-65
2022/01/08 08:59:26;;;;;;;12.35;11.65;;;;;;;3.39;72.22;101226.50;4977975;28;20138;-64
2022/01/08 09:01:51;;;;;;;11.70;11.05;;;;;;;3.69;72.12;101207.66;4966745;28;20409;-67
2022/01/08 09:04:17;;;;;;;10.80;10.30;;;;;;;3.48;72.36;101217.94;4974574;28;20228;-67
2022/01/08 09:06:42;;;;;;;10.75;10.25;;;;;;;3.26;73.93;101207.34;4971640;28;20027;-63
2022/01/08 09:09:08;;;;;;;11.23;10.63;;;;;;;2.81;75.09;101208.84;4973927;28;20046;-63
2022/01/08 09:11:34;;;;;;;10.98;10.43;;;;;;;3.15;74.92;101207.25;4975163;28;20041;-63
2022/01/08 09:14:00;;;;;;;11.60;11.00;;;;;;;3.54;72.68;101195.69;4977984;28;20030;-62
2022/01/08 09:16:25;;;;;;;12.43;11.73;;;;;;;4.90;67.55;101204.47;4972413;28;20535;-67
2022/01/08 09:18:51;;;;;;;11.85;11.13;;;;;;;5.49;64.12;101193.56;4962471;28;20118;-67
2022/01/08 09:21:17;;;;;;;11.10;10.43;;;;;;;3.45;72.81;101181.47;4971558;28;20027;-65
2022/01/08 09:23:42;;;;;;;11.68;10.98;;;;;;;3.49;74.37;101166.31;4975932;28;20026;-65
2022/01/08 09:26:08;;;;;;;12.10;11.30;;;;;;;3.57;73.49;101171.84;4972040;28;20038;-65
2022/01/08 09:28:33;;;;;;;11.93;11.23;;;;;;;2.81;76.42;101170.38;4970218;28;20073;-63
2022/01/08 09:31:01;;;;;;;11.68;10.98;;;;;;;2.80;77.36;101167.88;4965834;28;20027;-65
2022/01/08 09:33:27;;;;;;;12.07;11.38;;;;;;;2.52;78.41;101155.88;4962670;28;20054;-65
2022/01/08 09:35:53;;;;;;;11.55;10.95;;;;;;;2.55;78.37;101153.03;4970568;28;20444;-64
2022/01/08 09:38:19;;;;;;;11.60;10.95;;;;;;;2.52;79.83;101145.41;4971742;28;20440;-68
2022/01/08 09:40:44;;;;;;;11.77;11.18;;;;;;;2.84;78.68;101133.47;4980880;28;20030;-68
2022/01/08 09:43:10;;;;;;;13.13;12.32;;;;;;;2.43;79.95;101145.09;4964090;28;20034;-64
2022/01/08 09:45:36;;;;;;;11.02;10.45;;;;;;;2.79;79.28;101146.03;4970860;28;21294;-62
2022/01/08 09:48:01;;;;;;;13.07;12.23;;;;;;;2.37;81.67;101142.06;4967685;28;20745;-64
2022/01/08 09:50:27;;;;;;;11.23;10.63;;;;;;;2.24;81.26;101136.00;4972172;28;20027;-64
2022/01/08 09:52:57;;;;;;;11.20;10.60;;;;;;;2.59;80.99;101134.38;4986894;28;20388;-63
2022/01/08 09:55:25;;;;;;;11.60;11.00;;;;;;;2.63;80.26;101124.50;4964214;28;20057;-62
2022/01/08 09:57:51;;;;;;;11.68;11.00;;;;;;;2.40;81.84;101134.81;4969104;28;20023;-62
2022/01/08 10:00:17;;;;;;;13.32;12.52;;;;;;;2.55;82.62;101126.84;4967255;28;20049;-65
2022/01/08 10:02:44;;;;;;;10.93;10.32;;;;;;;3.03;80.75;101127.75;4966258;28;20121;-63
2022/01/08 10:05:15;;;;;;;11.15;10.55;;;;;;;2.95;80.50;101106.50;4971168;28;20034;-64
2022/01/08 10:07:42;;;;;;;10.60;10.10;;;;;;;2.38;81.52;101121.00;4966115;28;20027;-62
2022/01/08 10:10:17;;;;;;;11.00;10.40;;;;;;;2.88;79.96;101107.91;4982573;28;20523;-63
2022/01/08 10:12:55;;;;;;;10.38;9.88;;;;;;;2.41;82.02;101119.94;4972551;28;20031;-64
2022/01/08 10:18:27;;;;;;;11.73;11.02;;;;;;;2.13;84.46;101116.66;4966866;28;20093;-63
2022/01/08 10:20:55;;;;;;;11.18;10.57;;;;;;;2.15;85.29;101114.75;4984505;28;20026;-62
2022/01/08 10:23:32;;;;;;;11.57;10.95;;;;;;;2.52;83.93;101114.81;4963577;28;20041;-63
2022/01/08 10:26:11;;;;;;;11.95;11.25;;;;;;;2.34;84.26;101108.22;4967157;28;20193;-65
2022/01/08 10:28:51;;;;;;;11.68;11.00;;;;;;;2.02;84.79;101103.47;4970002;28;20039;-63
2022/01/08 10:31:23;;;;;;;11.40;10.75;;;;;;;2.31;84.63;101093.59;4970613;28;20035;-63
2022/01/08 10:34:01;;;;;;;10.85;10.25;;;;;;;2.40;84.03;101106.03;4972127;28;20589;-63
2022/01/08 10:36:56;;;;;;;11.20;10.60;;;;;;;2.30;84.77;101104.19;4974789;28;20031;-64
2022/01/08 10:39:31;;;;;;;10.30;9.80;;;;;;;2.23;84.06;101093.28;4968087;28;20105;-62
2022/01/08 10:42:01;;;;;;;11.25;10.65;;;;;;;2.05;84.98;101107.63;4968218;28;20027;-65
2022/01/08 10:44:33;;;;;;;11.75;11.05;;;;;;;2.18;84.90;101092.75;4969150;28;20027;-63
2022/01/08 10:47:02;;;;;;;11.63;10.98;;;;;;;2.32;86.02;101087.41;4965651;28;20035;-63
2022/01/08 10:49:29;;;;;;;10.27;9.77;;;;;;;2.30;86.08;101097.16;4971284;28;20089;-63
2022/01/08 10:51:57;;;;;;;10.90;10.30;;;;;;;2.10;86.13;101095.91;4967468;28;20098;-60
2022/01/08 10:54:30;;;;;;;11.45;10.75;;;;;;;2.04;86.04;101083.25;4965943;28;20034;-61
2022/01/08 10:57:00;;;;;;;14.25;13.30;;;;;;;2.22;85.60;101076.75;4963225;28;20054;-62
2022/01/08 10:59:26;;;;;;;11.02;10.43;;;;;;;2.18;86.80;101082.28;4965609;28;20034;-62
2022/01/08 11:01:56;;;;;;;13.20;12.40;;;;;;;2.21;86.08;101071.63;4957797;28;20062;-66
2022/01/08 11:04:38;;;;;;;11.73;11.02;;;;;;;2.37;86.00;101061.75;4961575;28;20535;-62
2022/01/08 11:07:20;;;;;;;11.05;10.45;;;;;;;2.62;86.05;101063.44;4963820;28;20061;-67
2022/01/08 11:09:47;;;;;;;12.40;11.60;;;;;;;2.62;85.77;101059.97;4962061;28;20027;-63
2022/01/08 11:12:17;;;;;;;11.68;10.98;;;;;;;2.61;86.01;101060.94;4968242;28;20054;-62
2022/01/08 11:17:25;;;;;;;11.98;11.27;;;;;;;2.86;84.38;101050.34;4961068;28;20038;-67
2022/01/08 11:19:51;;;;;;;;;;;;;;;2.93;85.15;101048.94;4964740;28;20449;-65
2022/01/08 11:22:20;;;;;;;10.88;10.27;;;;;;;2.93;84.97;101048.09;4971038;28;19945;-66
2022/01/08 11:24:59;;;;;;;12.27;11.48;;;;;;;2.72;85.24;101040.06;4973950;28;20054;-65
2022/01/08 11:27:33;;;;;;;11.75;11.07;;;;;;;2.67;86.01;101042.16;4973001;28;20054;-67
2022/01/08 11:30:19;;;;;;;;;;;;;;;2.84;84.66;101048.78;4969644;28;20034;-64